Time;durP1;ratioP1;P1;durP2;ratioP2;P2;SDS_P1;SDS_P2;PMS_P1;PMS_P2;Temp;Humidity;BMP_temperature;BMP_pressure;BME280_temperature;BME280_humidity;BME280_pressure;Samples;Min_cycle;Max_cycle;Signal;HPM_P1;HPM_P2
2021/09/09 00:01:32;;;;;;;15.73;14.17;;;17.80;99.90;;;;;;5053899;28;20228;-71
2021/09/09 00:03:59;;;;;;;15.70;14.10;;;17.70;99.90;;;;;;5053424;28;20284;-72
2021/09/09 00:06:24;;;;;;;14.50;13.10;;;17.70;99.90;;;;;;5053794;28;20166;-72
2021/09/09 00:08:50;;;;;;;15.07;13.60;;;17.70;99.90;;;;;;5053862;28;20785;-71
2021/09/09 00:11:16;;;;;;;14.83;13.07;;;17.70;99.90;;;;;;5035662;28;20206;-71
2021/09/09 00:13:42;;;;;;;14.10;12.80;;;17.60;99.90;;;;;;5053638;28;20558;-71
2021/09/09 00:16:07;;;;;;;15.57;13.60;;;17.60;99.90;;;;;;5034976;28;20984;-71
2021/09/09 00:18:33;;;;;;;14.93;13.33;;;17.60;99.90;;;;;;5053259;28;20190;-71
2021/09/09 00:20:58;;;;;;;14.40;13.00;;;17.50;99.90;;;;;;5035476;28;20194;-71
2021/09/09 00:23:25;;;;;;;15.83;13.70;;;17.50;99.90;;;;;;5053487;28;20232;-71
2021/09/09 00:25:50;;;;;;;14.23;12.77;;;17.50;99.90;;;;;;5053060;28;20174;-72
2021/09/09 00:28:16;;;;;;;15.50;13.90;;;17.40;99.90;;;;;;5052914;28;20751;-70
2021/09/09 00:30:42;;;;;;;14.83;13.43;;;17.50;99.90;;;;;;5052879;28;20357;-71
2021/09/09 00:33:08;;;;;;;15.20;13.60;;;17.50;99.90;;;;;;5053296;28;20170;-71
2021/09/09 00:35:35;;;;;;;17.23;13.97;;;17.50;99.90;;;;;;5052735;28;20772;-71
2021/09/09 00:38:01;;;;;;;15.30;13.77;;;17.40;99.90;;;;;;5034762;28;20448;-71
2021/09/09 00:40:27;;;;;;;15.77;14.23;;;17.40;99.90;;;;;;5053401;28;20440;-71
2021/09/09 00:42:53;;;;;;;15.33;13.83;;;17.40;99.90;;;;;;5053078;28;20429;-71
2021/09/09 00:45:19;;;;;;;15.60;14.00;;;17.40;99.90;;;;;;5035478;28;20924;-72
2021/09/09 00:47:45;;;;;;;15.27;13.77;;;17.40;99.90;;;;;;5053279;28;20409;-71
2021/09/09 00:50:11;;;;;;;15.07;13.57;;;17.40;99.90;;;;;;5052654;28;20671;-71
2021/09/09 00:52:39;;;;;;;15.20;13.70;;;17.40;99.90;;;;;;5052537;28;20194;-71
2021/09/09 00:55:05;;;;;;;14.80;13.20;;;17.30;99.90;;;;;;5052927;28;20460;-71
2021/09/09 00:57:35;;;;;;;16.07;14.63;;;17.30;99.90;;;;;;5053695;28;20420;-71
2021/09/09 01:00:00;;;;;;;16.33;14.80;;;17.30;99.90;;;;;;5057173;28;20886;-71
2021/09/09 01:02:26;;;;;;;16.70;13.90;;;17.30;99.90;;;;;;5057597;28;20468;-71
2021/09/09 01:04:53;;;;;;;15.90;14.30;;;17.30;99.90;;;;;;5056510;28;20459;-71
2021/09/09 01:07:18;;;;;;;14.30;12.90;;;17.30;99.90;;;;;;5056007;28;20182;-71
2021/09/09 01:09:44;;;;;;;15.90;14.20;;;17.30;99.90;;;;;;5056397;28;20458;-71
2021/09/09 01:12:10;;;;;;;15.00;13.07;;;17.30;99.90;;;;;;5056857;28;20592;-71
2021/09/09 01:14:35;;;;;;;15.23;13.43;;;17.30;99.90;;;;;;5056527;28;20202;-71
2021/09/09 01:17:01;;;;;;;15.17;13.67;;;17.30;99.90;;;;;;5056834;28;20217;-71
2021/09/09 01:19:26;;;;;;;16.57;14.80;;;17.30;99.90;;;;;;5055724;28;20257;-71
2021/09/09 01:21:52;;;;;;;15.03;13.53;;;17.30;99.90;;;;;;5055803;28;20193;-71
2021/09/09 01:24:22;;;;;;;17.20;15.53;;;17.30;99.90;;;;;;5056137;28;20260;-71
2021/09/09 01:26:47;;;;;;;16.03;14.20;;;17.30;99.90;;;;;;5056261;28;20197;-71
2021/09/09 01:29:13;;;;;;;14.80;13.30;;;17.30;99.90;;;;;;5055360;28;20432;-71
2021/09/09 01:31:39;;;;;;;15.53;14.03;;;17.30;99.90;;;;;;5055716;28;20204;-71
2021/09/09 01:34:06;;;;;;;15.90;14.30;;;17.30;99.90;;;;;;5055878;28;20205;-71
2021/09/09 01:36:32;;;;;;;15.00;13.50;;;17.30;99.90;;;;;;5037927;28;20482;-71
2021/09/09 01:38:58;;;;;;;16.20;14.60;;;17.20;99.90;;;;;;5055686;28;20491;-71
2021/09/09 01:41:23;;;;;;;15.83;14.20;;;17.20;99.90;;;;;;5057645;28;20523;-70
2021/09/09 01:43:49;;;;;;;15.00;13.47;;;17.20;99.90;;;;;;5056666;28;20178;-71
2021/09/09 01:46:14;;;;;;;16.57;14.87;;;17.20;99.90;;;;;;5055714;28;20723;-71
2021/09/09 01:48:40;;;;;;;15.70;14.27;;;17.10;99.90;;;;;;5055317;28;20219;-71
2021/09/09 01:51:06;;;;;;;15.63;13.90;;;17.10;99.90;;;;;;5056005;28;20221;-71
2021/09/09 01:53:31;;;;;;;15.07;13.63;;;17.10;99.90;;;;;;5055854;28;20304;-71
2021/09/09 01:55:57;;;;;;;16.57;13.80;;;17.10;99.90;;;;;;5056273;28;20965;-71
2021/09/09 01:58:23;;;;;;;16.53;14.90;;;17.00;99.90;;;;;;5054716;28;20221;-71
2021/09/09 02:00:48;;;;;;;16.00;14.40;;;17.00;99.90;;;;;;5054913;28;20443;-71
2021/09/09 02:03:14;;;;;;;14.70;13.30;;;17.00;99.90;;;;;;5054854;28;20530;-71
2021/09/09 02:05:39;;;;;;;16.30;14.60;;;17.00;99.90;;;;;;5055258;28;20189;-71
2021/09/09 02:08:05;;;;;;;15.60;14.00;;;17.00;99.90;;;;;;5054446;28;20205;-71
2021/09/09 02:10:31;;;;;;;15.93;14.37;;;17.00;99.90;;;;;;5053944;28;20206;-71
2021/09/09 02:12:56;;;;;;;16.47;14.87;;;16.90;99.90;;;;;;5054977;28;20198;-70
2021/09/09 02:15:22;;;;;;;14.60;13.20;;;16.90;99.90;;;;;;5054767;28;20201;-70
2021/09/09 02:17:47;;;;;;;16.00;14.50;;;16.90;99.90;;;;;;5055413;28;20185;-71
2021/09/09 02:20:13;;;;;;;19.20;14.50;;;16.90;99.90;;;;;;5055305;28;20555;-70
2021/09/09 02:22:39;;;;;;;15.87;14.20;;;16.90;99.90;;;;;;5054936;28;20198;-71
2021/09/09 02:25:06;;;;;;;16.33;14.73;;;16.90;99.90;;;;;;5054600;28;20416;-72
2021/09/09 02:27:31;;;;;;;16.97;14.47;;;16.90;99.90;;;;;;5054838;28;20409;-71
2021/09/09 02:29:57;;;;;;;15.80;13.83;;;16.90;99.90;;;;;;5054588;28;20428;-70
2021/09/09 02:32:22;;;;;;;14.93;13.33;;;16.90;99.90;;;;;;5054458;28;20253;-70
2021/09/09 02:34:48;;;;;;;15.20;12.97;;;16.90;99.90;;;;;;5036912;28;20651;-70
2021/09/09 02:37:13;;;;;;;16.20;14.70;;;16.80;99.90;;;;;;5054442;28;20189;-70
2021/09/09 02:39:42;;;;;;;15.30;13.80;;;16.80;99.90;;;;;;5054589;28;20220;-70
2021/09/09 02:42:08;;;;;;;14.17;12.87;;;16.80;99.90;;;;;;5054259;28;20186;-70
2021/09/09 02:44:34;;;;;;;15.47;13.87;;;16.80;99.90;;;;;;5053570;28;20850;-70
2021/09/09 02:46:59;;;;;;;15.20;13.70;;;16.80;99.90;;;;;;5054075;28;20483;-70
2021/09/09 02:49:25;;;;;;;16.30;14.60;;;16.80;99.90;;;;;;5054502;28;20174;-71
2021/09/09 02:51:51;;;;;;;15.73;14.10;;;16.80;99.90;;;;;;5054506;28;20202;-71
2021/09/09 02:54:16;;;;;;;14.40;13.00;;;16.80;99.90;;;;;;5053753;28;20213;-71
2021/09/09 02:56:42;;;;;;;14.37;12.93;;;16.90;99.90;;;;;;5054489;28;20535;-71
2021/09/09 02:59:07;;;;;;;15.00;13.50;;;16.90;99.90;;;;;;5054055;28;20575;-71
2021/09/09 03:01:39;;;;;;;15.70;13.50;;;16.90;99.90;;;;;;5054545;28;20229;-71
2021/09/09 03:04:05;;;;;;;15.17;13.67;;;16.90;99.90;;;;;;5054079;28;20239;-71
2021/09/09 03:06:31;;;;;;;16.00;14.40;;;16.90;99.90;;;;;;5054156;28;20547;-71
2021/09/09 03:08:56;;;;;;;16.97;14.40;;;16.80;99.90;;;;;;5054404;28;20895;-71
2021/09/09 03:11:22;;;;;;;14.40;12.57;;;16.90;99.90;;;;;;5054530;28;20768;-71
2021/09/09 03:13:47;;;;;;;15.50;13.47;;;16.90;99.90;;;;;;5054330;28;20190;-71
2021/09/09 03:16:13;;;;;;;15.23;13.63;;;16.80;99.90;;;;;;5054363;28;20257;-70
2021/09/09 03:18:38;;;;;;;14.20;12.73;;;16.80;99.90;;;;;;5053615;28;20555;-71
2021/09/09 03:21:04;;;;;;;15.23;13.73;;;16.80;99.90;;;;;;5053856;28;20191;-70
2021/09/09 03:23:30;;;;;;;17.07;14.70;;;16.70;99.90;;;;;;5054202;28;20273;-71
2021/09/09 03:25:55;;;;;;;15.47;13.77;;;16.80;99.90;;;;;;5054178;28;20186;-71
2021/09/09 03:28:21;;;;;;;14.93;13.37;;;16.70;99.90;;;;;;5054024;28;20202;-69
2021/09/09 03:30:46;;;;;;;15.63;14.10;;;16.70;99.90;;;;;;5054153;28;20224;-71
2021/09/09 03:33:12;;;;;;;15.67;14.00;;;16.70;99.90;;;;;;5054154;28;20178;-72
2021/09/09 03:35:38;;;;;;;16.13;13.67;;;16.70;99.90;;;;;;5053519;28;20276;-71
2021/09/09 03:38:04;;;;;;;15.17;13.40;;;16.70;99.90;;;;;;5034022;28;20217;-71
2021/09/09 03:40:29;;;;;;;15.23;13.50;;;16.70;99.90;;;;;;5033486;28;20430;-71
2021/09/09 03:42:55;;;;;;;15.73;14.00;;;16.70;99.90;;;;;;5034996;28;20175;-71
2021/09/09 03:45:20;;;;;;;15.33;13.17;;;16.60;99.90;;;;;;5034575;28;20640;-71
2021/09/09 03:47:46;;;;;;;16.27;14.33;;;16.70;99.90;;;;;;5050045;28;20189;-70
2021/09/09 03:50:12;;;;;;;15.20;13.30;;;16.70;99.90;;;;;;5055898;28;20610;-70
2021/09/09 03:52:37;;;;;;;15.10;13.50;;;16.70;99.90;;;;;;5055820;28;20481;-71
2021/09/09 03:55:04;;;;;;;16.67;14.03;;;16.70;99.90;;;;;;5053995;28;20323;-72
2021/09/09 03:57:30;;;;;;;16.23;13.70;;;16.70;99.90;;;;;;5035901;28;20187;-71
2021/09/09 03:59:55;;;;;;;15.80;13.57;;;16.70;99.90;;;;;;5052898;28;20417;-71
2021/09/09 04:02:21;;;;;;;14.93;13.50;;;16.80;99.90;;;;;;5053489;28;20268;-71
2021/09/09 04:04:46;;;;;;;15.73;13.47;;;16.70;99.90;;;;;;5054019;28;20663;-71
2021/09/09 04:07:12;;;;;;;15.30;13.80;;;16.70;99.90;;;;;;5036048;28;20262;-71
2021/09/09 04:09:37;;;;;;;15.70;14.13;;;16.70;99.90;;;;;;5035408;28;20178;-71
2021/09/09 04:12:04;;;;;;;14.77;13.37;;;16.70;99.90;;;;;;5046805;28;20226;-70
2021/09/09 04:14:31;;;;;;;14.37;12.87;;;16.70;99.90;;;;;;5040616;28;20199;-70
2021/09/09 04:16:56;;;;;;;15.63;14.03;;;16.60;99.90;;;;;;5043217;28;20774;-71
2021/09/09 04:19:23;;;;;;;15.30;13.17;;;16.60;99.90;;;;;;5047447;28;20430;-72
2021/09/09 04:21:50;;;;;;;15.50;13.90;;;16.50;99.90;;;;;;5044223;28;20206;-70
2021/09/09 04:24:16;;;;;;;15.70;13.03;;;16.50;99.90;;;;;;5040219;28;20512;-71
2021/09/09 04:26:41;;;;;;;14.50;12.97;;;16.60;99.90;;;;;;5042490;28;20456;-70
2021/09/09 04:29:07;;;;;;;16.13;14.30;;;16.60;99.90;;;;;;5036312;28;20174;-71
2021/09/09 04:31:34;;;;;;;14.67;13.20;;;16.60;99.90;;;;;;5053531;28;20229;-70
2021/09/09 04:33:59;;;;;;;16.17;13.00;;;16.60;99.90;;;;;;5049202;28;20695;-71
2021/09/09 04:36:25;;;;;;;13.90;12.60;;;16.70;99.90;;;;;;5036208;28;20445;-70
2021/09/09 04:38:51;;;;;;;14.70;13.20;;;16.60;99.90;;;;;;5036656;28;20182;-70
2021/09/09 04:41:16;;;;;;;13.33;11.93;;;16.60;99.90;;;;;;5033311;28;20202;-72
2021/09/09 04:43:42;;;;;;;14.23;12.63;;;16.60;99.90;;;;;;5053428;28;20198;-69
2021/09/09 04:46:07;;;;;;;15.00;13.50;;;16.60;99.90;;;;;;5053751;28;20638;-70
2021/09/09 04:48:33;;;;;;;15.20;13.57;;;16.60;99.90;;;;;;5049883;28;20866;-72
2021/09/09 04:50:59;;;;;;;16.27;14.60;;;16.60;99.90;;;;;;5045261;28;20217;-71
2021/09/09 04:53:24;;;;;;;13.67;12.13;;;16.60;99.90;;;;;;5045901;28;20586;-72
2021/09/09 04:55:50;;;;;;;14.33;12.77;;;16.60;99.90;;;;;;5042699;28;20222;-71
2021/09/09 04:58:15;;;;;;;16.10;12.83;;;16.60;99.90;;;;;;5044992;28;20199;-71
2021/09/09 05:00:41;;;;;;;14.27;12.80;;;16.50;99.90;;;;;;5058843;28;20201;-72
2021/09/09 05:03:06;;;;;;;19.10;14.00;;;16.60;99.90;;;;;;5054326;28;20263;-71
2021/09/09 05:05:32;;;;;;;14.20;12.80;;;16.60;99.90;;;;;;5044704;28;20301;-71
2021/09/09 05:07:58;;;;;;;16.63;14.00;;;16.50;99.90;;;;;;5034960;28;20190;-71
2021/09/09 05:10:24;;;;;;;16.10;14.47;;;16.60;99.90;;;;;;5018943;28;20349;-70
2021/09/09 05:12:50;;;;;;;15.33;13.03;;;16.60;99.90;;;;;;5036489;28;20492;-69
2021/09/09 05:15:15;;;;;;;16.40;13.17;;;16.60;99.90;;;;;;5009161;28;20214;-70
2021/09/09 05:17:41;;;;;;;15.13;13.13;;;16.60;99.90;;;;;;5046910;28;20206;-70
2021/09/09 05:20:07;;;;;;;17.43;13.37;;;16.60;99.90;;;;;;5049528;28;20194;-70
2021/09/09 05:22:34;;;;;;;14.83;13.20;;;16.60;99.90;;;;;;5050443;28;20205;-71
2021/09/09 05:25:01;;;;;;;21.27;13.97;;;16.60;99.90;;;;;;5049564;28;20503;-77
2021/09/09 05:27:27;;;;;;;16.07;13.40;;;16.70;99.90;;;;;;5050744;28;20464;-70
2021/09/09 05:29:52;;;;;;;14.77;13.17;;;16.70;99.90;;;;;;5033786;28;20832;-70
2021/09/09 05:32:18;;;;;;;13.57;11.50;;;16.70;99.90;;;;;;5053480;28;20215;-71
2021/09/09 05:34:44;;;;;;;15.35;13.70;;;16.70;99.90;;;;;;5053082;28;20982;-72
2021/09/09 05:37:09;;;;;;;15.13;13.30;;;16.80;99.90;;;;;;5053213;28;20244;-72
2021/09/09 05:39:35;;;;;;;15.10;13.43;;;16.80;99.90;;;;;;5051462;28;20193;-73
2021/09/09 05:42:00;;;;;;;17.20;13.03;;;16.80;99.90;;;;;;5052598;28;20210;-72
2021/09/09 05:44:26;;;;;;;14.83;13.30;;;16.90;99.90;;;;;;5053657;28;20711;-72
2021/09/09 05:46:51;;;;;;;18.63;14.17;;;16.90;99.90;;;;;;5054818;28;20565;-71
2021/09/09 05:49:17;;;;;;;17.97;14.70;;;16.90;99.90;;;;;;5055121;28;20220;-72
2021/09/09 05:51:42;;;;;;;16.10;12.93;;;16.90;99.90;;;;;;5055008;28;20190;-72
2021/09/09 05:54:08;;;;;;;15.17;13.53;;;16.90;99.90;;;;;;5056538;28;20749;-72
2021/09/09 05:56:33;;;;;;;17.63;14.20;;;17.00;99.90;;;;;;5055480;28;20193;-70
2021/09/09 05:59:00;;;;;;;14.80;13.27;;;17.00;99.90;;;;;;5056023;28;20186;-70
2021/09/09 06:01:28;;;;;;;16.27;14.57;;;17.00;99.90;;;;;;5055611;28;20210;-71
2021/09/09 06:03:55;;;;;;;18.50;13.80;;;17.00;99.90;;;;;;5054632;28;20436;-70
2021/09/09 06:06:21;;;;;;;16.47;14.30;;;17.10;99.90;;;;;;5055451;28;20412;-71
2021/09/09 06:08:47;;;;;;;16.00;13.60;;;17.10;99.90;;;;;;5036631;28;20443;-70
2021/09/09 06:11:12;;;;;;;16.60;14.20;;;17.20;99.90;;;;;;5037282;28;20449;-70
2021/09/09 06:13:38;;;;;;;15.60;14.00;;;17.20;99.90;;;;;;5054668;28;20166;-71
2021/09/09 06:16:05;;;;;;;19.35;14.80;;;17.30;99.90;;;;;;5054421;28;20882;-71
2021/09/09 06:18:30;;;;;;;19.20;14.67;;;17.30;99.90;;;;;;5055170;28;20178;-70
2021/09/09 06:20:56;;;;;;;25.53;14.00;;;17.30;99.90;;;;;;5054690;28;20436;-70
2021/09/09 06:23:21;;;;;;;22.60;14.00;;;17.40;99.90;;;;;;5037258;28;20185;-71
2021/09/09 06:25:47;;;;;;;15.03;13.43;;;17.40;99.90;;;;;;5055257;28;20206;-71
2021/09/09 06:28:12;;;;;;;20.40;14.27;;;17.50;99.90;;;;;;5055378;28;20171;-71
2021/09/09 06:30:38;;;;;;;16.80;15.10;;;17.50;99.90;;;;;;5048538;28;20241;-71
2021/09/09 06:33:03;;;;;;;21.53;15.17;;;17.60;99.90;;;;;;5055030;28;20178;-71
2021/09/09 06:35:29;;;;;;;16.60;13.20;;;17.60;99.90;;;;;;5055199;28;20216;-72
2021/09/09 06:37:56;;;;;;;16.17;14.50;;;17.70;99.90;;;;;;5055527;28;20175;-71
2021/09/09 06:40:21;;;;;;;16.63;13.30;;;17.80;99.90;;;;;;5055476;28;20251;-70
2021/09/09 06:42:47;;;;;;;17.13;14.60;;;17.80;99.90;;;;;;5056366;28;20511;-71
2021/09/09 06:45:13;;;;;;;15.73;14.10;;;17.90;99.90;;;;;;5057037;28;20181;-71
2021/09/09 06:47:38;;;;;;;18.07;14.70;;;17.90;99.90;;;;;;5052143;28;20198;-72
2021/09/09 06:50:05;;;;;;;20.00;15.90;;;18.00;99.90;;;;;;5042461;28;20221;-72
2021/09/09 06:52:31;;;;;;;18.20;15.67;;;18.00;99.90;;;;;;5040970;28;20454;-71
2021/09/09 06:54:57;;;;;;;19.30;15.10;;;18.10;99.90;;;;;;5022670;28;20513;-71
2021/09/09 06:57:22;;;;;;;17.30;14.23;;;18.10;99.90;;;;;;5041567;28;20937;-71
2021/09/09 06:59:48;;;;;;;16.37;13.87;;;18.20;99.90;;;;;;5051262;28;20209;-71
2021/09/09 07:02:13;;;;;;;22.30;16.60;;;18.30;99.90;;;;;;5052073;28;20194;-71
2021/09/09 07:04:39;;;;;;;17.47;13.87;;;18.30;99.90;;;;;;5050725;28;20255;-72
2021/09/09 07:07:04;;;;;;;18.17;15.20;;;18.40;99.90;;;;;;5051431;28;20695;-72
2021/09/09 07:09:30;;;;;;;14.53;12.90;;;18.50;99.90;;;;;;5049708;28;20284;-72
2021/09/09 07:11:55;;;;;;;15.87;14.17;;;18.50;99.90;;;;;;5038484;28;20302;-71
2021/09/09 07:14:21;;;;;;;19.77;12.67;;;18.60;99.90;;;;;;5044654;28;20210;-71
2021/09/09 07:16:47;;;;;;;18.13;13.10;;;18.70;99.90;;;;;;5052100;28;20206;-72
2021/09/09 07:19:12;;;;;;;13.13;11.80;;;18.70;99.90;;;;;;5045915;28;20242;-71
2021/09/09 07:21:38;;;;;;;15.87;12.87;;;18.90;99.90;;;;;;5046573;28;20210;-70
2021/09/09 07:24:05;;;;;;;16.23;12.77;;;19.00;99.90;;;;;;5040992;28;20195;-70
2021/09/09 07:26:30;;;;;;;11.93;10.63;;;19.10;99.90;;;;;;5046298;28;20222;-71
2021/09/09 07:28:56;;;;;;;13.70;12.40;;;19.20;99.90;;;;;;5040993;28;20420;-71
2021/09/09 07:31:22;;;;;;;15.57;11.20;;;19.40;99.90;;;;;;5049689;28;20232;-70
2021/09/09 07:33:48;;;;;;;12.20;10.97;;;19.40;99.90;;;;;;5032232;28;20511;-71
2021/09/09 07:36:13;;;;;;;12.17;10.63;;;19.50;99.90;;;;;;5032778;28;20685;-70
2021/09/09 07:38:39;;;;;;;11.90;10.13;;;19.70;99.90;;;;;;5041784;28;20221;-71
2021/09/09 07:41:04;;;;;;;12.23;10.50;;;19.70;99.90;;;;;;5049060;28;20201;-71
2021/09/09 07:43:30;;;;;;;18.00;12.10;;;19.80;99.90;;;;;;5026596;28;20167;-72
2021/09/09 07:45:56;;;;;;;11.83;9.90;;;19.90;99.90;;;;;;5035452;28;20189;-71
2021/09/09 07:48:22;;;;;;;10.40;9.10;;;20.00;99.90;;;;;;5028411;28;20273;-71
2021/09/09 07:50:48;;;;;;;12.87;11.67;;;20.10;99.90;;;;;;5044867;28;20197;-71
2021/09/09 07:53:14;;;;;;;11.63;10.43;;;20.10;99.90;;;;;;5031188;28;20478;-71
2021/09/09 07:55:39;;;;;;;11.13;10.03;;;20.20;99.90;;;;;;5050761;28;20472;-72
2021/09/09 07:58:05;;;;;;;12.10;10.33;;;20.40;99.90;;;;;;5032502;28;20416;-71
2021/09/09 08:00:31;;;;;;;10.33;9.33;;;20.50;99.90;;;;;;5050773;28;20299;-71
2021/09/09 08:02:57;;;;;;;11.68;9.60;;;20.60;99.90;;;;;;5033124;28;20908;-72
2021/09/09 08:05:22;;;;;;;8.87;8.03;;;20.70;99.90;;;;;;5052095;28;20174;-72
2021/09/09 08:07:48;;;;;;;9.23;8.23;;;20.70;99.90;;;;;;5057270;28;20189;-72
2021/09/09 08:10:16;;;;;;;10.30;9.30;;;20.80;99.90;;;;;;5057603;28;20202;-70
2021/09/09 08:12:43;;;;;;;10.60;8.40;;;20.90;99.90;;;;;;5058051;28;20217;-71
2021/09/09 08:15:09;;;;;;;9.40;8.50;;;21.00;99.90;;;;;;5057157;28;20469;-71
2021/09/09 08:17:35;;;;;;;9.83;8.93;;;21.20;99.90;;;;;;5057308;28;20558;-71
2021/09/09 08:20:01;;;;;;;8.80;7.90;;;21.30;99.90;;;;;;5057041;28;20500;-71
2021/09/09 08:22:27;;;;;;;10.83;9.17;;;21.40;99.90;;;;;;5039373;28;20173;-71
2021/09/09 08:24:53;;;;;;;10.53;8.80;;;21.40;99.90;;;;;;5057357;28;20628;-71
2021/09/09 08:27:20;;;;;;;9.80;8.90;;;21.40;99.90;;;;;;5057112;28;20428;-71
2021/09/09 08:29:45;;;;;;;10.23;9.30;;;21.50;99.90;;;;;;5056316;28;20461;-71
2021/09/09 08:32:11;;;;;;;9.60;8.70;;;21.60;99.90;;;;;;5039459;28;20448;-70
2021/09/09 08:34:36;;;;;;;10.10;9.10;;;21.70;99.90;;;;;;5057341;28;20198;-71
2021/09/09 08:37:02;;;;;;;10.63;9.63;;;21.80;99.90;;;;;;5057508;28;20181;-71
2021/09/09 08:39:28;;;;;;;11.27;8.80;;;21.90;99.90;;;;;;5056190;28;20285;-71
2021/09/09 08:41:54;;;;;;;9.10;8.20;;;22.00;99.90;;;;;;5057135;28;20460;-71
2021/09/09 08:44:19;;;;;;;9.33;8.53;;;22.10;99.90;;;;;;5056696;28;20235;-71
2021/09/09 08:46:45;;;;;;;10.50;8.80;;;22.10;99.90;;;;;;5056693;28;20182;-71
2021/09/09 08:49:11;;;;;;;11.67;9.60;;;22.20;99.90;;;;;;5056578;28;20174;-71
2021/09/09 08:51:37;;;;;;;9.87;8.97;;;22.30;99.90;;;;;;5056807;28;20480;-72
2021/09/09 08:54:02;;;;;;;9.80;8.93;;;22.40;99.90;;;;;;5056389;28;20460;-72
2021/09/09 08:56:28;;;;;;;10.07;9.10;;;22.50;99.90;;;;;;5057353;28;20178;-71
2021/09/09 08:58:54;;;;;;;10.37;9.33;;;22.70;99.90;;;;;;5056158;28;20171;-71
2021/09/09 09:01:19;;;;;;;10.53;9.30;;;22.80;99.90;;;;;;5056594;28;20201;-71
2021/09/09 09:03:53;;;;;;;9.90;8.90;;;22.80;99.90;;;;;;5056800;28;20272;-71
2021/09/09 09:06:21;;;;;;;9.50;8.70;;;22.90;99.90;;;;;;5036554;28;20491;-72
2021/09/09 09:08:53;;;;;;;10.23;9.23;;;23.10;99.90;;;;;;5036730;28;20791;-71
2021/09/09 09:11:23;;;;;;;8.47;7.70;;;23.20;99.90;;;;;;5036371;28;20449;-71
2021/09/09 09:13:49;;;;;;;10.10;9.10;;;23.20;99.90;;;;;;5035530;28;20484;-71
2021/09/09 09:16:15;;;;;;;9.53;8.63;;;23.30;99.90;;;;;;5056298;28;20316;-72
2021/09/09 09:18:44;;;;;;;9.00;8.20;;;23.40;99.90;;;;;;5056326;28;20177;-71
2021/09/09 09:21:09;;;;;;;9.50;8.60;;;23.50;99.90;;;;;;5056635;28;20444;-71
2021/09/09 09:23:35;;;;;;;9.47;8.20;;;23.60;99.90;;;;;;5056721;28;20507;-71
2021/09/09 09:26:03;;;;;;;11.70;9.00;;;23.60;99.90;;;;;;5056832;28;20249;-71
2021/09/09 09:28:39;;;;;;;9.20;8.40;;;23.80;99.90;;;;;;5057112;28;20416;-72
2021/09/09 09:31:06;;;;;;;9.53;8.63;;;23.80;99.90;;;;;;5057098;28;20416;-72
2021/09/09 09:33:35;;;;;;;8.70;7.90;;;23.80;99.80;;;;;;5057234;28;20455;-72
2021/09/09 09:36:12;;;;;;;10.20;9.30;;;23.90;99.90;;;;;;5040347;28;20446;-70
2021/09/09 09:38:38;;;;;;;9.13;8.30;;;24.00;99.80;;;;;;5039131;28;21021;-72
2021/09/09 09:41:07;;;;;;;9.80;8.87;;;24.00;99.70;;;;;;5055869;28;20463;-71
2021/09/09 09:43:34;;;;;;;9.37;8.50;;;24.20;99.90;;;;;;5055617;28;20699;-72
2021/09/09 09:45:59;;;;;;;10.50;9.40;;;24.20;99.70;;;;;;5055882;28;20424;-72
2021/09/09 09:48:26;;;;;;;10.20;9.20;;;24.20;99.40;;;;;;5056554;28;20547;-72
2021/09/09 09:50:52;;;;;;;10.23;8.00;;;24.20;99.50;;;;;;5058110;28;20194;-72
2021/09/09 09:53:18;;;;;;;9.30;8.40;;;24.20;99.60;;;;;;5039279;28;20515;-71
2021/09/09 09:55:45;;;;;;;9.67;8.63;;;24.40;99.20;;;;;;5061652;28;20452;-72
2021/09/09 09:58:12;;;;;;;8.97;8.17;;;24.50;99.20;;;;;;5069094;28;20420;-72
2021/09/09 10:00:37;;;;;;;9.50;8.70;;;24.60;99.20;;;;;;5060188;28;20440;-71
2021/09/09 10:03:03;;;;;;;10.00;9.00;;;24.70;99.30;;;;;;5060179;28;20482;-72
2021/09/09 10:05:32;;;;;;;9.90;9.00;;;24.70;98.90;;;;;;5059962;28;20263;-71
2021/09/09 10:07:59;;;;;;;9.30;8.40;;;24.80;98.90;;;;;;5061204;28;20700;-72
2021/09/09 10:10:25;;;;;;;9.48;8.50;;;24.90;98.90;;;;;;5054752;28;20415;-73
2021/09/09 10:12:52;;;;;;;10.70;8.83;;;24.90;98.80;;;;;;5055393;28;20190;-72
2021/09/09 10:15:20;;;;;;;9.13;8.33;;;25.00;98.90;;;;;;5055614;28;20444;-71
2021/09/09 10:17:46;;;;;;;9.73;8.80;;;25.10;98.90;;;;;;5056553;28;20914;-71
2021/09/09 10:20:30;;;;;;;11.63;9.27;;;25.10;98.80;;;;;;5055709;28;20427;-71
2021/09/09 10:23:07;;;;;;;10.90;8.70;;;25.20;98.30;;;;;;5055106;28;20467;-71
2021/09/09 10:25:53;;;;;;;9.70;8.80;;;25.30;98.30;;;;;;5056502;28;20412;-72
2021/09/09 10:28:40;;;;;;;9.97;8.97;;;25.30;98.50;;;;;;5055106;28;20729;-72
2021/09/09 10:31:11;;;;;;;9.70;8.73;;;25.30;98.60;;;;;;5054002;28;20519;-71
2021/09/09 10:33:44;;;;;;;10.30;9.30;;;25.30;98.60;;;;;;5054722;28;20416;-71
2021/09/09 10:36:38;;;;;;;9.83;9.03;;;25.20;98.50;;;;;;5054855;28;20393;-72
2021/09/09 10:39:05;;;;;;;8.83;7.93;;;25.10;98.70;;;;;;5035072;28;20929;-71
2021/09/09 10:41:31;;;;;;;8.80;8.10;;;25.10;98.80;;;;;;5054264;28;20447;-72
2021/09/09 10:44:05;;;;;;;10.00;9.00;;;25.10;98.90;;;;;;5055166;28;20511;-72
2021/09/09 10:46:36;;;;;;;9.53;8.83;;;25.20;98.90;;;;;;5054890;28;20507;-72
2021/09/09 10:49:07;;;;;;;9.80;8.80;;;25.20;98.80;;;;;;5054052;28;20486;-72
2021/09/09 10:52:06;;;;;;;9.20;8.40;;;25.30;98.50;;;;;;5074623;28;20526;-71
2021/09/09 10:54:39;;;;;;;10.20;9.37;;;25.40;98.50;;;;;;5059651;28;20462;-71
2021/09/09 10:57:15;;;;;;;9.83;8.93;;;25.50;98.30;;;;;;5054628;28;20421;-72
2021/09/09 10:59:48;;;;;;;9.97;8.90;;;25.50;98.30;;;;;;5053512;28;20444;-72
2021/09/09 11:02:15;;;;;;;9.67;8.77;;;25.40;98.50;;;;;;5051618;28;20433;-72
2021/09/09 11:04:42;;;;;;;9.80;8.90;;;25.40;98.40;;;;;;5064346;28;20466;-71
2021/09/09 11:07:22;;;;;;;14.00;9.10;;;25.40;98.50;;;;;;5072143;28;20385;-71
2021/09/09 11:09:57;;;;;;;10.77;9.77;;;25.30;98.20;;;;;;5072121;28;20550;-73
2021/09/09 11:12:23;;;;;;;9.80;8.80;;;25.30;98.30;;;;;;5071985;28;20445;-73
2021/09/09 11:14:48;;;;;;;9.60;8.70;;;25.20;98.60;;;;;;5068374;28;20422;-71
2021/09/09 11:17:17;;;;;;;10.80;9.70;;;25.30;98.60;;;;;;5071779;28;20424;-72
2021/09/09 11:19:43;;;;;;;10.37;8.90;;;25.30;98.20;;;;;;5071053;28;20193;-72
2021/09/09 11:22:09;;;;;;;10.50;9.50;;;25.40;98.00;;;;;;5070934;28;20522;-70
2021/09/09 11:24:35;;;;;;;11.00;9.40;;;25.40;98.10;;;;;;5071455;28;20844;-71
2021/09/09 11:27:02;;;;;;;10.37;9.33;;;25.40;98.30;;;;;;5051427;28;20304;-72
2021/09/09 11:29:27;;;;;;;10.67;9.67;;;25.30;98.60;;;;;;5050672;28;20417;-72
2021/09/09 11:31:55;;;;;;;10.30;9.30;;;25.30;98.80;;;;;;5051321;28;20519;-72
2021/09/09 11:34:31;;;;;;;11.00;9.90;;;25.50;98.80;;;;;;5050908;28;20170;-72
2021/09/09 11:37:01;;;;;;;10.87;9.77;;;25.40;98.90;;;;;;5052244;28;20404;-72
2021/09/09 11:39:30;;;;;;;10.77;9.67;;;25.30;99.20;;;;;;5050703;28;20411;-72
2021/09/09 11:41:56;;;;;;;11.80;10.60;;;25.20;99.40;;;;;;5050723;28;20946;-72
2021/09/09 11:44:29;;;;;;;11.27;9.37;;;25.20;99.40;;;;;;5051017;28;20397;-72
2021/09/09 11:46:56;;;;;;;10.70;9.60;;;25.20;99.60;;;;;;5060242;28;20634;-72
2021/09/09 11:49:24;;;;;;;10.90;9.90;;;25.20;99.60;;;;;;5069547;28;20434;-72
2021/09/09 11:51:55;;;;;;;11.17;10.10;;;25.20;99.70;;;;;;5070545;28;20519;-72
2021/09/09 11:54:26;;;;;;;10.97;9.87;;;25.30;99.60;;;;;;5071238;28;20436;-72
2021/09/09 11:57:10;;;;;;;9.73;8.83;;;25.40;99.60;;;;;;5069086;28;20447;-72
2021/09/09 11:59:46;;;;;;;14.57;10.97;;;25.50;99.50;;;;;;5070344;28;20503;-72
2021/09/09 12:02:15;;;;;;;13.20;10.13;;;25.50;99.60;;;;;;5062423;28;20458;-72
2021/09/09 12:04:42;;;;;;;10.87;9.77;;;25.50;99.80;;;;;;5056176;28;20788;-71
2021/09/09 12:07:09;;;;;;;11.83;10.47;;;25.40;99.90;;;;;;5056939;28;20412;-71
2021/09/09 12:09:38;;;;;;;12.40;9.57;;;25.50;99.90;;;;;;5056265;28;20441;-72
2021/09/09 12:12:09;;;;;;;11.97;10.77;;;25.50;99.90;;;;;;5057251;28;20429;-72
2021/09/09 12:14:37;;;;;;;11.80;10.60;;;25.60;99.90;;;;;;5057213;28;20428;-71
2021/09/09 12:17:09;;;;;;;12.07;10.77;;;25.50;99.90;;;;;;5057323;28;20440;-71
2021/09/09 12:19:53;;;;;;;11.93;10.73;;;25.60;99.90;;;;;;5054892;28;20416;-71
2021/09/09 12:22:19;;;;;;;11.33;10.37;;;25.70;99.90;;;;;;5057584;28;20397;-71
2021/09/09 12:24:44;;;;;;;14.23;10.37;;;25.60;99.90;;;;;;5057647;28;20405;-71
2021/09/09 12:27:16;;;;;;;13.10;10.90;;;25.70;99.90;;;;;;5056188;28;20435;-71
2021/09/09 12:29:44;;;;;;;13.40;12.00;;;25.80;99.90;;;;;;5054516;28;20194;-72